Notice: Undefined offset: 173 in /var/www/html/w34_livedata.php on line 151

Notice: Undefined index: name in /var/www/html/metar_load_funct.php on line 61

Notice: Undefined index: humidity_percent in /var/www/html/metar_load_funct.php on line 103
Weather34 Metar Aviation Weather Data Popup
17°C Temp
'.PHP_EOL;
7°C Dauwpunt
% Vochtigheid
Temperatuur
19 KM/H
12 MPH
10 KTS
90°
Het Oosten

Wind Snelheid
Helder
Luchtdruk 998.92 (hPa)- 29.5 (in)
Zicht 6.2 (mi) - 10 (km)

Huidig weer
EHLW
Locatie 30(km)
Metar:
EHLW 232025Z AUTO 09010KT 020V160 9999 NCD 17/07 Q0999 BLU

Notice: Undefined offset: 1 in /var/www/html/metar_popup.php on line 285

Notice: Undefined offset: 1 in /var/www/html/metar_popup.php on line 287

Warning: gmmktime() expects parameter 1 to be long, string given in /var/www/html/metar_popup.php on line 288
Thu 1st January 01:00 am

Vliegveld
  Metar Aviation API Data Provided by https://www.checkwx.com/